sensor_id;sensor_type;location;lat;lon;timestamp;pressure;altitude;pressure_sealevel;temperature;humidity
33404;BME280;19751;40.274;18.268;2023-09-18T00:00:46;101309.59;;;23.41;100.00
33404;BME280;19751;40.274;18.268;2023-09-18T00:03:15;101304.69;;;23.43;100.00
33404;BME280;19751;40.274;18.268;2023-09-18T00:05:43;101308.78;;;23.41;100.00
33404;BME280;19751;40.274;18.268;2023-09-18T00:08:08;101310.91;;;23.33;100.00
33404;BME280;19751;40.274;18.268;2023-09-18T00:10:34;101307.53;;;23.26;100.00
33404;BME280;19751;40.274;18.268;2023-09-18T00:13:00;101307.75;;;23.20;100.00
33404;BME280;19751;40.274;18.268;2023-09-18T00:15:26;101305.28;;;23.18;100.00
33404;BME280;19751;40.274;18.268;2023-09-18T00:17:52;101295.31;;;23.12;100.00
33404;BME280;19751;40.274;18.268;2023-09-18T00:20:17;101298.88;;;23.13;100.00
33404;BME280;19751;40.274;18.268;2023-09-18T00:22:44;101304.13;;;23.14;100.00
33404;BME280;19751;40.274;18.268;2023-09-18T00:25:09;101300.81;;;23.12;100.00
33404;BME280;19751;40.274;18.268;2023-09-18T00:27:35;101297.75;;;23.08;100.00
33404;BME280;19751;40.274;18.268;2023-09-18T00:30:03;101298.53;;;23.04;100.00
33404;BME280;19751;40.274;18.268;2023-09-18T00:32:29;101297.88;;;22.97;100.00
33404;BME280;19751;40.274;18.268;2023-09-18T00:34:55;101302.50;;;22.91;100.00
33404;BME280;19751;40.274;18.268;2023-09-18T00:37:21;101304.34;;;22.86;100.00
33404;BME280;19751;40.274;18.268;2023-09-18T00:39:46;101305.94;;;22.81;100.00
33404;BME280;19751;40.274;18.268;2023-09-18T00:42:12;101304.28;;;22.80;100.00
33404;BME280;19751;40.274;18.268;2023-09-18T00:44:43;101302.75;;;22.68;100.00
33404;BME280;19751;40.274;18.268;2023-09-18T00:47:09;101312.84;;;22.62;100.00
33404;BME280;19751;40.274;18.268;2023-09-18T00:49:36;101313.84;;;22.56;100.00
33404;BME280;19751;40.274;18.268;2023-09-18T00:52:04;101318.13;;;22.47;100.00
33404;BME280;19751;40.274;18.268;2023-09-18T00:54:31;101316.66;;;22.39;100.00
33404;BME280;19751;40.274;18.268;2023-09-18T00:56:57;101316.09;;;22.37;100.00
33404;BME280;19751;40.274;18.268;2023-09-18T00:59:23;101320.50;;;22.38;100.00
33404;BME280;19751;40.274;18.268;2023-09-18T01:01:49;101316.16;;;22.42;100.00
33404;BME280;19751;40.274;18.268;2023-09-18T01:04:19;101314.88;;;22.50;100.00
33404;BME280;19751;40.274;18.268;2023-09-18T01:06:45;101316.38;;;22.57;100.00
33404;BME280;19751;40.274;18.268;2023-09-18T01:09:11;101312.84;;;22.62;100.00
33404;BME280;19751;40.274;18.268;2023-09-18T01:14:42;101304.47;;;22.74;100.00
33404;BME280;19751;40.274;18.268;2023-09-18T01:17:10;101303.38;;;22.75;100.00
33404;BME280;19751;40.274;18.268;2023-09-18T01:22:09;101301.75;;;22.74;100.00
33404;BME280;19751;40.274;18.268;2023-09-18T01:24:37;101303.38;;;22.75;100.00
33404;BME280;19751;40.274;18.268;2023-09-18T01:27:03;101295.16;;;22.75;100.00
33404;BME280;19751;40.274;18.268;2023-09-18T01:29:30;101296.81;;;22.76;100.00
33404;BME280;19751;40.274;18.268;2023-09-18T01:31:56;101302.63;;;22.79;100.00
33404;BME280;19751;40.274;18.268;2023-09-18T01:34:27;101297.16;;;22.84;100.00
33404;BME280;19751;40.274;18.268;2023-09-18T01:36:55;101299.41;;;22.88;100.00
33404;BME280;19751;40.274;18.268;2023-09-18T01:39:22;101298.59;;;22.87;100.00
33404;BME280;19751;40.274;18.268;2023-09-18T01:41:50;101300.50;;;22.87;100.00
33404;BME280;19751;40.274;18.268;2023-09-18T01:44:15;101296.09;;;22.86;100.00
33404;BME280;19751;40.274;18.268;2023-09-18T01:46:41;101297.25;;;22.90;100.00
33404;BME280;19751;40.274;18.268;2023-09-18T01:49:07;101287.31;;;22.89;100.00
33404;BME280;19751;40.274;18.268;2023-09-18T01:51:33;101292.34;;;22.92;100.00
33404;BME280;19751;40.274;18.268;2023-09-18T01:53:58;101286.84;;;22.92;100.00
33404;BME280;19751;40.274;18.268;2023-09-18T01:56:24;101293.91;;;22.88;100.00
33404;BME280;19751;40.274;18.268;2023-09-18T01:58:50;101291.44;;;22.86;100.00
33404;BME280;19751;40.274;18.268;2023-09-18T02:01:15;101288.69;;;22.86;100.00
33404;BME280;19751;40.274;18.268;2023-09-18T02:03:41;101287.88;;;22.86;100.00
33404;BME280;19751;40.274;18.268;2023-09-18T02:06:09;101288.94;;;22.84;100.00
33404;BME280;19751;40.274;18.268;2023-09-18T02:08:35;101281.56;;;22.85;100.00
33404;BME280;19751;40.274;18.268;2023-09-18T02:11:00;101290.34;;;22.87;100.00
33404;BME280;19751;40.274;18.268;2023-09-18T02:13:26;101284.03;;;22.87;100.00
33404;BME280;19751;40.274;18.268;2023-09-18T02:15:52;101289.78;;;22.85;100.00
33404;BME280;19751;40.274;18.268;2023-09-18T02:18:18;101289.78;;;22.85;100.00
33404;BME280;19751;40.274;18.268;2023-09-18T02:20:44;101285.63;;;22.82;100.00
33404;BME280;19751;40.274;18.268;2023-09-18T02:23:13;101290.31;;;22.82;100.00
33404;BME280;19751;40.274;18.268;2023-09-18T02:25:38;101283.97;;;22.81;100.00
33404;BME280;19751;40.274;18.268;2023-09-18T02:28:06;101291.94;;;22.83;100.00
33404;BME280;19751;40.274;18.268;2023-09-18T02:30:31;101285.13;;;22.86;100.00
33404;BME280;19751;40.274;18.268;2023-09-18T02:32:57;101289.78;;;22.85;100.00
33404;BME280;19751;40.274;18.268;2023-09-18T02:35:22;101287.28;;;22.83;100.00
33404;BME280;19751;40.274;18.268;2023-09-18T02:37:48;101286.72;;;22.81;100.00
33404;BME280;19751;40.274;18.268;2023-09-18T02:40:13;101284.47;;;22.78;100.00
33404;BME280;19751;40.274;18.268;2023-09-18T02:42:39;101294.88;;;22.76;100.00
33404;BME280;19751;40.274;18.268;2023-09-18T02:45:05;101300.38;;;22.76;100.00
33404;BME280;19751;40.274;18.268;2023-09-18T02:47:31;101294.59;;;22.73;100.00
33404;BME280;19751;40.274;18.268;2023-09-18T02:49:57;101298.41;;;22.72;100.00
33404;BME280;19751;40.274;18.268;2023-09-18T02:52:22;101299.22;;;22.72;100.00
33404;BME280;19751;40.274;18.268;2023-09-18T02:54:48;101294.84;;;22.71;100.00
33404;BME280;19751;40.274;18.268;2023-09-18T02:57:14;101291.00;;;22.72;100.00
33404;BME280;19751;40.274;18.268;2023-09-18T02:59:40;101291.75;;;22.68;100.00
33404;BME280;19751;40.274;18.268;2023-09-18T03:02:05;101290.63;;;22.64;100.00
33404;BME280;19751;40.274;18.268;2023-09-18T03:04:31;101288.66;;;22.59;100.00
33404;BME280;19751;40.274;18.268;2023-09-18T03:06:57;101287.25;;;22.56;100.00
33404;BME280;19751;40.274;18.268;2023-09-18T03:09:22;101282.28;;;22.53;100.00
33404;BME280;19751;40.274;18.268;2023-09-18T03:11:48;101281.13;;;22.49;100.00
33404;BME280;19751;40.274;18.268;2023-09-18T03:14:13;101286.28;;;22.46;100.00
33404;BME280;19751;40.274;18.268;2023-09-18T03:16:39;101291.28;;;22.49;100.00
33404;BME280;19751;40.274;18.268;2023-09-18T03:19:04;101285.56;;;22.55;100.00
33404;BME280;19751;40.274;18.268;2023-09-18T03:21:30;101286.72;;;22.59;100.00
33404;BME280;19751;40.274;18.268;2023-09-18T03:23:58;101283.47;;;22.63;100.00
33404;BME280;19751;40.274;18.268;2023-09-18T03:26:24;101288.69;;;22.64;100.00
33404;BME280;19751;40.274;18.268;2023-09-18T03:28:49;101286.53;;;22.66;100.00
33404;BME280;19751;40.274;18.268;2023-09-18T03:31:15;101288.50;;;22.71;100.00
33404;BME280;19751;40.274;18.268;2023-09-18T03:33:40;101285.50;;;22.72;100.00
33404;BME280;19751;40.274;18.268;2023-09-18T03:36:06;101288.00;;;22.74;100.00
33404;BME280;19751;40.274;18.268;2023-09-18T03:38:33;101292.41;;;22.75;100.00
33404;BME280;19751;40.274;18.268;2023-09-18T03:41:00;101291.00;;;22.72;100.00
33404;BME280;19751;40.274;18.268;2023-09-18T03:43:26;101285.50;;;22.72;100.00
33404;BME280;19751;40.274;18.268;2023-09-18T03:45:52;101282.25;;;22.75;100.00
33404;BME280;19751;40.274;18.268;2023-09-18T03:48:17;101278.69;;;22.75;100.00
33404;BME280;19751;40.274;18.268;2023-09-18T03:50:43;101281.16;;;22.76;100.00
33404;BME280;19751;40.274;18.268;2023-09-18T03:53:09;101283.66;;;22.78;100.00
33404;BME280;19751;40.274;18.268;2023-09-18T03:55:35;101280.53;;;22.69;100.00
33404;BME280;19751;40.274;18.268;2023-09-18T03:58:00;101277.16;;;22.62;100.00
33404;BME280;19751;40.274;18.268;2023-09-18T04:00:26;101274.91;;;22.59;100.00
33404;BME280;19751;40.274;18.268;2023-09-18T04:02:51;101270.00;;;22.61;100.00
33404;BME280;19751;40.274;18.268;2023-09-18T04:05:17;101266.72;;;22.64;100.00
33404;BME280;19751;40.274;18.268;2023-09-18T04:07:42;101259.91;;;22.67;100.00
33404;BME280;19751;40.274;18.268;2023-09-18T04:10:12;101259.59;;;22.63;100.00
33404;BME280;19751;40.274;18.268;2023-09-18T04:12:43;101254.03;;;22.58;100.00
33404;BME280;19751;40.274;18.268;2023-09-18T04:15:13;101249.88;;;22.55;100.00
33404;BME280;19751;40.274;18.268;2023-09-18T04:17:39;101246.84;;;22.52;100.00
33404;BME280;19751;40.274;18.268;2023-09-18T04:20:05;101245.44;;;22.49;100.00
33404;BME280;19751;40.274;18.268;2023-09-18T04:22:31;101241.28;;;22.47;100.00
33404;BME280;19751;40.274;18.268;2023-09-18T04:24:56;101247.03;;;22.45;100.00
33404;BME280;19751;40.274;18.268;2023-09-18T04:27:22;101237.97;;;22.45;100.00
33404;BME280;19751;40.274;18.268;2023-09-18T04:29:47;101233.25;;;22.40;100.00
33404;BME280;19751;40.274;18.268;2023-09-18T04:32:13;101229.97;;;22.43;100.00
33404;BME280;19751;40.274;18.268;2023-09-18T04:34:38;101236.88;;;22.46;100.00
33404;BME280;19751;40.274;18.268;2023-09-18T04:37:04;101247.03;;;22.45;100.00
33404;BME280;19751;40.274;18.268;2023-09-18T04:39:30;101239.53;;;22.36;100.00
33404;BME280;19751;40.274;18.268;2023-09-18T04:41:55;101240.84;;;22.33;100.00
33404;BME280;19751;40.274;18.268;2023-09-18T04:44:21;101232.34;;;22.34;100.00
33404;BME280;19751;40.274;18.268;2023-09-18T04:46:46;101232.44;;;22.40;100.00
33404;BME280;19751;40.274;18.268;2023-09-18T04:49:12;101222.59;;;22.44;100.00
33404;BME280;19751;40.274;18.268;2023-09-18T04:51:38;101227.22;;;22.43;100.00
33404;BME280;19751;40.274;18.268;2023-09-18T04:54:07;101227.22;;;22.43;100.00
33404;BME280;19751;40.274;18.268;2023-09-18T04:56:32;101227.81;;;22.45;100.00
33404;BME280;19751;40.274;18.268;2023-09-18T04:58:58;101227.56;;;22.47;100.00
33404;BME280;19751;40.274;18.268;2023-09-18T05:01:23;101232.28;;;22.51;100.00
33404;BME280;19751;40.274;18.268;2023-09-18T05:03:50;101233.69;;;22.54;100.00
33404;BME280;19751;40.274;18.268;2023-09-18T05:06:16;101233.69;;;22.54;100.00
33404;BME280;19751;40.274;18.268;2023-09-18T05:08:43;101229.84;;;22.55;100.00
33404;BME280;19751;40.274;18.268;2023-09-18T05:11:09;101240.28;;;22.53;100.00
33404;BME280;19751;40.274;18.268;2023-09-18T05:13:34;101232.03;;;22.53;100.00
33404;BME280;19751;40.274;18.268;2023-09-18T05:16:00;101238.03;;;22.50;100.00
33404;BME280;19751;40.274;18.268;2023-09-18T05:18:26;101244.66;;;22.54;100.00
33404;BME280;19751;40.274;18.268;2023-09-18T05:20:52;101242.78;;;22.59;100.00
33404;BME280;19751;40.274;18.268;2023-09-18T05:23:17;101250.25;;;22.64;100.00
33404;BME280;19751;40.274;18.268;2023-09-18T05:25:43;101254.41;;;22.67;100.00
33404;BME280;19751;40.274;18.268;2023-09-18T05:28:09;101248.97;;;22.72;100.00
33404;BME280;19751;40.274;18.268;2023-09-18T05:30:35;101255.69;;;22.81;100.00
33404;BME280;19751;40.274;18.268;2023-09-18T05:33:04;101257.13;;;22.89;100.00
33404;BME280;19751;40.274;18.268;2023-09-18T05:35:43;101250.38;;;22.96;100.00
33404;BME280;19751;40.274;18.268;2023-09-18T05:38:12;101247.94;;;23.00;100.00
33404;BME280;19751;40.274;18.268;2023-09-18T05:40:43;101244.41;;;23.04;100.00
33404;BME280;19751;40.274;18.268;2023-09-18T05:43:10;101252.69;;;23.10;100.00
33404;BME280;19751;40.274;18.268;2023-09-18T05:45:37;101256.00;;;23.12;100.00
33404;BME280;19751;40.274;18.268;2023-09-18T05:48:03;101247.81;;;23.17;100.00
33404;BME280;19751;40.274;18.268;2023-09-18T05:50:34;101246.19;;;23.21;100.00
33404;BME280;19751;40.274;18.268;2023-09-18T05:53:00;101249.81;;;23.26;100.00
33404;BME280;19751;40.274;18.268;2023-09-18T05:55:30;101244.38;;;23.31;100.00
33404;BME280;19751;40.274;18.268;2023-09-18T05:57:55;101256.22;;;23.37;100.00
33404;BME280;19751;40.274;18.268;2023-09-18T06:00:23;101259.00;;;23.42;100.00
33404;BME280;19751;40.274;18.268;2023-09-18T06:02:49;101260.72;;;23.48;100.00
33404;BME280;19751;40.274;18.268;2023-09-18T06:05:16;101271.47;;;23.50;100.00
33404;BME280;19751;40.274;18.268;2023-09-18T06:07:42;101252.78;;;23.52;100.00
33404;BME280;19751;40.274;18.268;2023-09-18T06:10:08;101257.19;;;23.53;100.00
33404;BME280;19751;40.274;18.268;2023-09-18T06:12:34;101257.50;;;23.56;100.00
33404;BME280;19751;40.274;18.268;2023-09-18T06:14:59;101258.34;;;23.62;100.00
33404;BME280;19751;40.274;18.268;2023-09-18T06:17:25;101263.38;;;23.65;100.00
33404;BME280;19751;40.274;18.268;2023-09-18T06:19:50;101258.16;;;23.69;100.00
33404;BME280;19751;40.274;18.268;2023-09-18T06:22:17;101264.53;;;23.74;100.00
33404;BME280;19751;40.274;18.268;2023-09-18T06:24:43;101257.13;;;23.80;100.00
33404;BME280;19751;40.274;18.268;2023-09-18T06:27:08;101257.72;;;23.87;100.00
33404;BME280;19751;40.274;18.268;2023-09-18T06:29:34;101251.19;;;23.93;100.00
33404;BME280;19751;40.274;18.268;2023-09-18T06:32:01;101246.53;;;23.99;100.00
33404;BME280;19751;40.274;18.268;2023-09-18T06:34:27;101247.91;;;24.01;100.00
33404;BME280;19751;40.274;18.268;2023-09-18T06:36:54;101246.84;;;24.08;100.00
33404;BME280;19751;40.274;18.268;2023-09-18T06:39:19;101246.59;;;24.14;100.00
33404;BME280;19751;40.274;18.268;2023-09-18T06:41:47;101249.94;;;24.21;100.00
33404;BME280;19751;40.274;18.268;2023-09-18T06:44:13;101252.16;;;24.24;100.00
33404;BME280;19751;40.274;18.268;2023-09-18T06:46:38;101240.59;;;24.27;100.00
33404;BME280;19751;40.274;18.268;2023-09-18T06:49:04;101230.97;;;24.30;100.00
33404;BME280;19751;40.274;18.268;2023-09-18T06:51:30;101235.13;;;24.33;100.00
33404;BME280;19751;40.274;18.268;2023-09-18T06:53:55;101229.09;;;24.36;100.00
33404;BME280;19751;40.274;18.268;2023-09-18T06:56:23;101224.72;;;24.40;100.00
33404;BME280;19751;40.274;18.268;2023-09-18T06:58:49;101233.56;;;24.47;100.00
33404;BME280;19751;40.274;18.268;2023-09-18T07:01:17;101218.13;;;24.51;100.00
33404;BME280;19751;40.274;18.268;2023-09-18T07:03:44;101222.56;;;24.57;100.00
33404;BME280;19751;40.274;18.268;2023-09-18T07:06:13;101214.59;;;24.61;100.00
33404;BME280;19751;40.274;18.268;2023-09-18T07:08:38;101211.03;;;24.65;100.00
33404;BME280;19751;40.274;18.268;2023-09-18T07:11:04;101213.78;;;24.70;100.00
33404;BME280;19751;40.274;18.268;2023-09-18T07:13:29;101222.91;;;24.76;100.00
33404;BME280;19751;40.274;18.268;2023-09-18T07:15:55;101234.19;;;24.79;100.00
33404;BME280;19751;40.274;18.268;2023-09-18T07:18:20;101244.13;;;24.86;100.00
33404;BME280;19751;40.274;18.268;2023-09-18T07:20:46;101246.88;;;24.91;100.00
33404;BME280;19751;40.274;18.268;2023-09-18T07:23:12;101247.44;;;24.93;100.00
33404;BME280;19751;40.274;18.268;2023-09-18T07:25:37;101243.31;;;24.95;100.00
33404;BME280;19751;40.274;18.268;2023-09-18T07:28:06;101239.72;;;25.00;100.00
33404;BME280;19751;40.274;18.268;2023-09-18T07:30:33;101228.97;;;25.03;100.00
33404;BME280;19751;40.274;18.268;2023-09-18T07:32:58;101242.50;;;25.05;100.00
33404;BME280;19751;40.274;18.268;2023-09-18T07:35:24;101241.94;;;25.08;100.00
33404;BME280;19751;40.274;18.268;2023-09-18T07:37:51;101247.75;;;25.12;100.00
33404;BME280;19751;40.274;18.268;2023-09-18T07:40:16;101253.28;;;25.17;100.00
33404;BME280;19751;40.274;18.268;2023-09-18T07:42:42;101248.03;;;25.20;100.00
33404;BME280;19751;40.274;18.268;2023-09-18T07:45:11;101243.63;;;25.24;100.00
33404;BME280;19751;40.274;18.268;2023-09-18T07:47:37;101257.41;;;25.29;100.00
33404;BME280;19751;40.274;18.268;2023-09-18T07:50:03;101261.28;;;25.34;100.00
33404;BME280;19751;40.274;18.268;2023-09-18T07:52:29;101258.78;;;25.37;100.00
33404;BME280;19751;40.274;18.268;2023-09-18T07:54:55;101264.88;;;25.39;100.00
33404;BME280;19751;40.274;18.268;2023-09-18T07:57:21;101262.09;;;25.44;100.00
33404;BME280;19751;40.274;18.268;2023-09-18T07:59:48;101261.56;;;25.47;100.00
33404;BME280;19751;40.274;18.268;2023-09-18T08:02:14;101254.41;;;25.51;100.00
33404;BME280;19751;40.274;18.268;2023-09-18T08:04:39;101243.63;;;25.55;100.00
33404;BME280;19751;40.274;18.268;2023-09-18T08:07:05;101241.41;;;25.57;100.00
33404;BME280;19751;40.274;18.268;2023-09-18T08:09:33;101252.44;;;25.62;100.00
33404;BME280;19751;40.274;18.268;2023-09-18T08:12:03;101241.69;;;25.66;100.00
33404;BME280;19751;40.274;18.268;2023-09-18T08:14:28;101241.41;;;25.67;100.00
33404;BME280;19751;40.274;18.268;2023-09-18T08:16:58;101235.88;;;25.72;100.00
33404;BME280;19751;40.274;18.268;2023-09-18T08:19:24;101241.69;;;25.76;100.00
33404;BME280;19751;40.274;18.268;2023-09-18T08:21:53;101233.13;;;25.77;100.00
33404;BME280;19751;40.274;18.268;2023-09-18T08:24:20;101235.34;;;25.81;100.00
33404;BME280;19751;40.274;18.268;2023-09-18T08:26:46;101236.44;;;25.85;100.00
33404;BME280;19751;40.274;18.268;2023-09-18T08:29:11;101230.34;;;25.88;100.00
33404;BME280;19751;40.274;18.268;2023-09-18T08:31:37;101230.91;;;25.90;100.00
33404;BME280;19751;40.274;18.268;2023-09-18T08:34:02;101228.66;;;25.92;100.00
33404;BME280;19751;40.274;18.268;2023-09-18T08:36:28;101227.56;;;25.98;100.00
33404;BME280;19751;40.274;18.268;2023-09-18T08:38:56;101238.06;;;26.01;100.00
33404;BME280;19751;40.274;18.268;2023-09-18T08:41:23;101238.59;;;26.03;100.00
33404;BME280;19751;40.274;18.268;2023-09-18T08:43:53;101243.25;;;26.08;100.00
33404;BME280;19751;40.274;18.268;2023-09-18T08:46:22;101241.31;;;26.13;100.00
33404;BME280;19751;40.274;18.268;2023-09-18T08:48:48;101238.25;;;26.20;100.00
33404;BME280;19751;40.274;18.268;2023-09-18T08:51:15;101236.56;;;26.24;100.00
33404;BME280;19751;40.274;18.268;2023-09-18T08:53:42;101241.53;;;26.27;100.00
33404;BME280;19751;40.274;18.268;2023-09-18T08:56:08;101242.94;;;26.30;100.00
33404;BME280;19751;40.274;18.268;2023-09-18T08:58:37;101243.72;;;26.35;100.00
33404;BME280;19751;40.274;18.268;2023-09-18T09:01:05;101240.66;;;26.42;100.00
33404;BME280;19751;40.274;18.268;2023-09-18T09:03:36;101247.84;;;26.48;100.00
33404;BME280;19751;40.274;18.268;2023-09-18T09:06:02;101245.03;;;26.53;100.00
33404;BME280;19751;40.274;18.268;2023-09-18T09:08:28;101229.28;;;26.59;100.00
33404;BME280;19751;40.274;18.268;2023-09-18T09:10:54;101234.47;;;26.65;100.00
33404;BME280;19751;40.274;18.268;2023-09-18T09:13:23;101230.59;;;26.71;100.00
33404;BME280;19751;40.274;18.268;2023-09-18T09:15:53;101230.59;;;26.71;100.00
33404;BME280;19751;40.274;18.268;2023-09-18T09:18:21;101242.16;;;26.73;100.00
33404;BME280;19751;40.274;18.268;2023-09-18T09:20:57;101229.13;;;26.79;100.00
33404;BME280;19751;40.274;18.268;2023-09-18T09:23:28;101225.53;;;26.84;100.00
33404;BME280;19751;40.274;18.268;2023-09-18T09:26:00;101212.19;;;26.91;100.00
33404;BME280;19751;40.274;18.268;2023-09-18T09:28:37;101219.59;;;27.00;100.00
33404;BME280;19751;40.274;18.268;2023-09-18T09:31:03;101211.00;;;27.02;100.00
33404;BME280;19751;40.274;18.268;2023-09-18T09:33:29;101219.31;;;27.02;100.00
33404;BME280;19751;40.274;18.268;2023-09-18T09:35:55;101208.25;;;27.02;100.00
33404;BME280;19751;40.274;18.268;2023-09-18T09:38:28;101212.09;;;27.06;100.00
33404;BME280;19751;40.274;18.268;2023-09-18T09:40:54;101203.78;;;27.11;100.00
33404;BME280;19751;40.274;18.268;2023-09-18T09:43:19;101204.31;;;27.13;100.00
33404;BME280;19751;40.274;18.268;2023-09-18T09:45:46;101205.09;;;27.19;100.00
33404;BME280;19751;40.274;18.268;2023-09-18T09:48:11;101202.00;;;27.25;100.00
33404;BME280;19751;40.274;18.268;2023-09-18T09:50:47;101195.06;;;27.28;100.00
33404;BME280;19751;40.274;18.268;2023-09-18T09:53:13;101189.72;;;27.37;100.00
33404;BME280;19751;40.274;18.268;2023-09-18T09:55:40;101190.25;;;27.39;98.79
33404;BME280;19751;40.274;18.268;2023-09-18T09:58:08;101176.44;;;27.39;97.69
33404;BME280;19751;40.274;18.268;2023-09-18T10:00:41;101181.41;;;27.37;96.99
33404;BME280;19751;40.274;18.268;2023-09-18T10:03:10;101178.44;;;27.33;96.29
33404;BME280;19751;40.274;18.268;2023-09-18T10:05:38;101180.91;;;27.35;96.27
33404;BME280;19751;40.274;18.268;2023-09-18T10:08:07;101177.25;;;27.39;96.45
33404;BME280;19751;40.274;18.268;2023-09-18T10:10:36;101186.09;;;27.41;96.63
33404;BME280;19751;40.274;18.268;2023-09-18T10:13:27;101186.31;;;27.45;95.64
33404;BME280;19751;40.274;18.268;2023-09-18T10:15:56;101186.22;;;27.55;91.89
33404;BME280;19751;40.274;18.268;2023-09-18T10:21:25;101171.44;;;27.65;88.32
33404;BME280;19751;40.274;18.268;2023-09-18T10:24:02;101177.19;;;27.73;88.73
33404;BME280;19751;40.274;18.268;2023-09-18T10:26:32;101175.22;;;27.79;89.48
33404;BME280;19751;40.274;18.268;2023-09-18T10:29:03;101179.63;;;27.80;90.51
33404;BME280;19751;40.274;18.268;2023-09-18T10:31:33;101167.72;;;27.80;91.08
33404;BME280;19751;40.274;18.268;2023-09-18T10:34:01;101164.66;;;27.81;91.54
33404;BME280;19751;40.274;18.268;2023-09-18T10:36:29;101167.44;;;27.81;91.31
33404;BME280;19751;40.274;18.268;2023-09-18T10:38:56;101164.91;;;27.85;90.22
33404;BME280;19751;40.274;18.268;2023-09-18T10:41:25;101162.63;;;27.87;89.97
33404;BME280;19751;40.274;18.268;2023-09-18T10:43:53;101161.53;;;27.88;89.01
33404;BME280;19751;40.274;18.268;2023-09-18T10:46:19;101161.78;;;27.91;87.55
33404;BME280;19751;40.274;18.268;2023-09-18T10:48:45;101170.03;;;27.96;87.21
33404;BME280;19751;40.274;18.268;2023-09-18T10:51:12;101160.59;;;27.97;86.60
33404;BME280;19751;40.274;18.268;2023-09-18T10:53:40;101161.94;;;28.00;86.80
33404;BME280;19751;40.274;18.268;2023-09-18T10:56:05;101156.41;;;28.00;87.92
33404;BME280;19751;40.274;18.268;2023-09-18T10:58:32;101164.66;;;28.05;88.64
33404;BME280;19751;40.274;18.268;2023-09-18T11:01:02;101163.50;;;28.06;88.82
33404;BME280;19751;40.274;18.268;2023-09-18T11:03:33;101157.69;;;28.08;88.80
33404;BME280;19751;40.274;18.268;2023-09-18T11:06:03;101159.34;;;28.09;88.61
33404;BME280;19751;40.274;18.268;2023-09-18T11:08:49;101166.22;;;28.11;88.92
33404;BME280;19751;40.274;18.268;2023-09-18T11:11:18;101160.91;;;28.15;88.91
33404;BME280;19751;40.274;18.268;2023-09-18T11:13:50;101160.84;;;28.20;89.97
33404;BME280;19751;40.274;18.268;2023-09-18T11:16:34;101154.47;;;28.19;90.48
33404;BME280;19751;40.274;18.268;2023-09-18T11:19:07;101156.44;;;28.19;90.88
33404;BME280;19751;40.274;18.268;2023-09-18T11:21:34;101156.72;;;28.17;90.79
33404;BME280;19751;40.274;18.268;2023-09-18T11:24:04;101153.16;;;28.17;90.37
33404;BME280;19751;40.274;18.268;2023-09-18T11:26:36;101140.41;;;28.16;89.83
33404;BME280;19751;40.274;18.268;2023-09-18T11:29:07;101147.28;;;28.18;89.08
33404;BME280;19751;40.274;18.268;2023-09-18T11:34:22;101139.91;;;28.33;87.21
33404;BME280;19751;40.274;18.268;2023-09-18T11:36:49;101137.38;;;28.36;84.84
33404;BME280;19751;40.274;18.268;2023-09-18T11:39:37;101132.09;;;28.35;83.20
33404;BME280;19751;40.274;18.268;2023-09-18T11:42:13;101134.59;;;28.36;82.98
33404;BME280;19751;40.274;18.268;2023-09-18T11:44:42;101124.88;;;28.39;82.82
33404;BME280;19751;40.274;18.268;2023-09-18T11:47:16;101130.09;;;28.40;81.46
33404;BME280;19751;40.274;18.268;2023-09-18T11:49:55;101121.50;;;28.42;80.47
33404;BME280;19751;40.274;18.268;2023-09-18T11:52:25;101125.94;;;28.43;80.55
33404;BME280;19751;40.274;18.268;2023-09-18T11:54:51;101123.47;;;28.41;80.46
33404;BME280;19751;40.274;18.268;2023-09-18T11:57:18;101126.53;;;28.40;79.16
33404;BME280;19751;40.274;18.268;2023-09-18T11:59:46;101122.09;;;28.39;78.87
33404;BME280;19751;40.274;18.268;2023-09-18T12:02:29;101126.75;;;28.43;78.96
33404;BME280;19751;40.274;18.268;2023-09-18T12:05:11;101123.59;;;28.50;79.33
33404;BME280;19751;40.274;18.268;2023-09-18T12:07:40;101126.06;;;28.52;79.19
33404;BME280;19751;40.274;18.268;2023-09-18T12:10:10;101111.91;;;28.53;78.71
33404;BME280;19751;40.274;18.268;2023-09-18T12:12:36;101112.75;;;28.54;77.88
33404;BME280;19751;40.274;18.268;2023-09-18T12:15:01;101107.94;;;28.59;76.42
33404;BME280;19751;40.274;18.268;2023-09-18T12:17:28;101107.34;;;28.62;76.00
33404;BME280;19751;40.274;18.268;2023-09-18T12:19:54;101098.41;;;28.65;75.60
33404;BME280;19751;40.274;18.268;2023-09-18T12:22:29;101101.13;;;28.70;74.92
33404;BME280;19751;40.274;18.268;2023-09-18T12:25:13;101099.38;;;28.74;73.57
33404;BME280;19751;40.274;18.268;2023-09-18T12:27:42;101098.25;;;28.76;71.22
33404;BME280;19751;40.274;18.268;2023-09-18T12:30:08;101095.78;;;28.74;70.35
33404;BME280;19751;40.274;18.268;2023-09-18T12:32:37;101093.22;;;28.78;69.11
33404;BME280;19751;40.274;18.268;2023-09-18T12:35:05;101095.16;;;28.77;68.55
33404;BME280;19751;40.274;18.268;2023-09-18T12:37:44;101094.03;;;28.78;68.37
33404;BME280;19751;40.274;18.268;2023-09-18T12:40:29;101093.75;;;28.80;68.35
33404;BME280;19751;40.274;18.268;2023-09-18T12:42:58;101098.16;;;28.81;67.57
33404;BME280;19751;40.274;18.268;2023-09-18T12:45:25;101090.97;;;28.80;67.56